Airfield :
LOGIN :

Register | Disclaimer

   EN    FR    IT 

 










Legend :    VFR   Marginal VFR   IFR   Intensive IFR   Very Intensive IFR
Visi :
Ceiling :
>= 8 km
>= 3000ft
5 to 8 km
1000 to 3000 ft
1500m to 5 km
500 to 1000 ft
800 to 1500m
200 to 500 ft
< 800m
< 200 ft
Symbols :   Thunderstorms  Fog  Heavy snow  Heavy precipitations  Wind > 20 kt
SIGMETs :     Misc.  Thunderstorms  Icing  Turbulence  Mountain Waves  Volcanic Ashes







- Airport Elevation : 400 ft
- IATA code : BNX


LQBK - Banja Luka

CURRENT METAR :
  • 240830Z VRB03KT CAVOK 21/13 Q1018 NOSIG

EXPIRED METARs :
  • 240800Z 36003KT 290V100 CAVOK 21/13 Q1018 NOSIG
  • 240730Z VRB02KT CAVOK 20/13 Q1018 NOSIG
  • 240700Z 15003KT 110V180 CAVOK 18/12 Q1018 NOSIG
  • 240630Z 16004KT CAVOK 16/12 Q1017 NOSIG
  • 240600Z 16004KT CAVOK 13/10 Q1017 NOSIG

TAF TAF LQBK
Valid from the 24 at 06:00 until the 25 at 06:00 UTC


240500Z 2406/2506 30005KT CAVOK TX27/2413Z TN09/2503Z
PROB40
TEMPO 2412/2418 36015KT TSRA FEW030CB SCT040
No reported NOTAMs for that airfield.



MET'MAP, your aeronautical weather chart ! - Copyright ORBIFLY December 2007 - Disclaimer

ORBIFLY MET'MAP TEAM :

Programming & Development : Alexandra Zaïnal
Concept & Development : Baudouin d'Aumeries
Co-Development & Prog : Marc-Olivier Méhu
Technical & hardware support : Manuel Goepfert

Contact : metmap@orbifly.com




SOURCES & CREDITS :

   NOAA